sensor_id;sensor_type;location;lat;lon;timestamp;temperature;humidity
53711;DHT22;39605;52.704;6.752;2022-07-10T00:00:16;13.40;99.90
53711;DHT22;39605;52.704;6.752;2022-07-10T00:02:43;13.30;99.90
53711;DHT22;39605;52.704;6.752;2022-07-10T00:05:10;13.40;99.90
53711;DHT22;39605;52.704;6.752;2022-07-10T00:07:35;13.30;99.90
53711;DHT22;39605;52.704;6.752;2022-07-10T00:10:04;13.30;99.90
53711;DHT22;39605;52.704;6.752;2022-07-10T00:12:30;13.20;99.90
53711;DHT22;39605;52.704;6.752;2022-07-10T00:14:56;13.20;99.90
53711;DHT22;39605;52.704;6.752;2022-07-10T00:17:22;13.20;99.90
53711;DHT22;39605;52.704;6.752;2022-07-10T00:19:47;13.20;99.90
53711;DHT22;39605;52.704;6.752;2022-07-10T00:22:13;13.20;99.90
53711;DHT22;39605;52.704;6.752;2022-07-10T00:24:39;13.20;99.90
53711;DHT22;39605;52.704;6.752;2022-07-10T00:27:05;13.20;99.90
53711;DHT22;39605;52.704;6.752;2022-07-10T00:29:30;13.30;99.90
53711;DHT22;39605;52.704;6.752;2022-07-10T00:31:56;13.30;99.90
53711;DHT22;39605;52.704;6.752;2022-07-10T00:34:21;13.30;99.90
53711;DHT22;39605;52.704;6.752;2022-07-10T00:36:47;13.20;99.90
53711;DHT22;39605;52.704;6.752;2022-07-10T00:39:13;13.20;99.90
53711;DHT22;39605;52.704;6.752;2022-07-10T00:41:38;13.20;99.90
53711;DHT22;39605;52.704;6.752;2022-07-10T00:44:04;13.20;99.90
53711;DHT22;39605;52.704;6.752;2022-07-10T00:46:31;13.20;99.90
53711;DHT22;39605;52.704;6.752;2022-07-10T00:48:57;13.20;99.90
53711;DHT22;39605;52.704;6.752;2022-07-10T00:51:28;13.30;99.90
53711;DHT22;39605;52.704;6.752;2022-07-10T00:53:56;13.20;99.90
53711;DHT22;39605;52.704;6.752;2022-07-10T00:56:23;13.20;99.90
53711;DHT22;39605;52.704;6.752;2022-07-10T00:58:50;13.10;99.90
53711;DHT22;39605;52.704;6.752;2022-07-10T01:01:15;13.10;99.90
53711;DHT22;39605;52.704;6.752;2022-07-10T01:03:43;13.10;99.90
53711;DHT22;39605;52.704;6.752;2022-07-10T01:06:11;13.10;99.90
53711;DHT22;39605;52.704;6.752;2022-07-10T01:08:37;13.10;99.90
53711;DHT22;39605;52.704;6.752;2022-07-10T01:11:03;13.10;99.90
53711;DHT22;39605;52.704;6.752;2022-07-10T01:13:29;13.20;99.90
53711;DHT22;39605;52.704;6.752;2022-07-10T01:15:55;13.20;99.90
53711;DHT22;39605;52.704;6.752;2022-07-10T01:18:22;13.20;99.90
53711;DHT22;39605;52.704;6.752;2022-07-10T01:20:57;13.20;99.90
53711;DHT22;39605;52.704;6.752;2022-07-10T01:23:23;13.10;99.90
53711;DHT22;39605;52.704;6.752;2022-07-10T01:25:50;13.20;99.90
53711;DHT22;39605;52.704;6.752;2022-07-10T01:28:16;13.20;99.90
53711;DHT22;39605;52.704;6.752;2022-07-10T01:30:42;13.20;99.90
53711;DHT22;39605;52.704;6.752;2022-07-10T01:33:08;13.20;99.90
53711;DHT22;39605;52.704;6.752;2022-07-10T01:35:34;13.20;99.90
53711;DHT22;39605;52.704;6.752;2022-07-10T01:37:59;13.20;99.90
53711;DHT22;39605;52.704;6.752;2022-07-10T01:40:25;13.20;99.90
53711;DHT22;39605;52.704;6.752;2022-07-10T01:42:51;13.20;99.90
53711;DHT22;39605;52.704;6.752;2022-07-10T01:45:17;13.20;99.90
53711;DHT22;39605;52.704;6.752;2022-07-10T01:47:43;13.20;99.90
53711;DHT22;39605;52.704;6.752;2022-07-10T01:50:09;13.20;99.90
53711;DHT22;39605;52.704;6.752;2022-07-10T01:52:35;13.10;99.90
53711;DHT22;39605;52.704;6.752;2022-07-10T01:55:01;13.20;99.90
53711;DHT22;39605;52.704;6.752;2022-07-10T01:57:27;13.20;99.90
53711;DHT22;39605;52.704;6.752;2022-07-10T01:59:53;13.20;99.90
53711;DHT22;39605;52.704;6.752;2022-07-10T02:02:19;13.20;99.90
53711;DHT22;39605;52.704;6.752;2022-07-10T02:04:45;13.20;99.90
53711;DHT22;39605;52.704;6.752;2022-07-10T02:07:12;13.20;99.90
53711;DHT22;39605;52.704;6.752;2022-07-10T02:09:38;13.10;99.90
53711;DHT22;39605;52.704;6.752;2022-07-10T02:12:08;13.10;99.90
53711;DHT22;39605;52.704;6.752;2022-07-10T02:14:34;13.10;99.90
53711;DHT22;39605;52.704;6.752;2022-07-10T02:17:00;13.00;99.90
53711;DHT22;39605;52.704;6.752;2022-07-10T02:19:26;13.00;99.90
53711;DHT22;39605;52.704;6.752;2022-07-10T02:21:51;12.90;99.90
53711;DHT22;39605;52.704;6.752;2022-07-10T02:24:17;12.90;99.90
53711;DHT22;39605;52.704;6.752;2022-07-10T02:26:43;12.90;99.90
53711;DHT22;39605;52.704;6.752;2022-07-10T02:29:09;12.80;99.90
53711;DHT22;39605;52.704;6.752;2022-07-10T02:31:35;12.80;99.90
53711;DHT22;39605;52.704;6.752;2022-07-10T02:34:06;12.70;99.90
53711;DHT22;39605;52.704;6.752;2022-07-10T02:36:32;12.70;99.90
53711;DHT22;39605;52.704;6.752;2022-07-10T02:38:58;12.60;99.90
53711;DHT22;39605;52.704;6.752;2022-07-10T02:41:24;12.60;99.90
53711;DHT22;39605;52.704;6.752;2022-07-10T02:43:50;12.50;99.90
53711;DHT22;39605;52.704;6.752;2022-07-10T02:46:16;12.50;99.90
53711;DHT22;39605;52.704;6.752;2022-07-10T02:48:41;12.40;99.90
53711;DHT22;39605;52.704;6.752;2022-07-10T02:51:07;12.30;99.90
53711;DHT22;39605;52.704;6.752;2022-07-10T02:53:33;12.20;99.90
53711;DHT22;39605;52.704;6.752;2022-07-10T02:55:58;12.20;99.90
53711;DHT22;39605;52.704;6.752;2022-07-10T02:58:24;12.20;99.90
53711;DHT22;39605;52.704;6.752;2022-07-10T03:00:49;12.20;99.90
53711;DHT22;39605;52.704;6.752;2022-07-10T03:03:15;12.10;99.90
53711;DHT22;39605;52.704;6.752;2022-07-10T03:05:46;12.10;99.90
53711;DHT22;39605;52.704;6.752;2022-07-10T03:08:12;12.10;99.90
53711;DHT22;39605;52.704;6.752;2022-07-10T03:10:38;12.00;99.90
53711;DHT22;39605;52.704;6.752;2022-07-10T03:13:04;12.00;99.90
53711;DHT22;39605;52.704;6.752;2022-07-10T03:15:30;12.00;99.90
53711;DHT22;39605;52.704;6.752;2022-07-10T03:17:56;12.00;99.90
53711;DHT22;39605;52.704;6.752;2022-07-10T03:20:21;12.00;99.90
53711;DHT22;39605;52.704;6.752;2022-07-10T03:22:47;12.00;99.90
53711;DHT22;39605;52.704;6.752;2022-07-10T03:25:13;12.00;99.90
53711;DHT22;39605;52.704;6.752;2022-07-10T03:27:39;12.00;99.90
53711;DHT22;39605;52.704;6.752;2022-07-10T03:30:05;12.00;99.90
53711;DHT22;39605;52.704;6.752;2022-07-10T03:32:31;12.00;99.90
53711;DHT22;39605;52.704;6.752;2022-07-10T03:34:57;11.90;99.90
53711;DHT22;39605;52.704;6.752;2022-07-10T03:37:23;11.90;99.90
53711;DHT22;39605;52.704;6.752;2022-07-10T03:39:49;11.90;99.90
53711;DHT22;39605;52.704;6.752;2022-07-10T03:42:14;11.90;99.90
53711;DHT22;39605;52.704;6.752;2022-07-10T03:44:40;11.90;99.90
53711;DHT22;39605;52.704;6.752;2022-07-10T03:47:06;11.80;99.90
53711;DHT22;39605;52.704;6.752;2022-07-10T03:49:31;11.80;99.90
53711;DHT22;39605;52.704;6.752;2022-07-10T03:52:02;11.80;99.90
53711;DHT22;39605;52.704;6.752;2022-07-10T03:54:28;11.80;99.90
53711;DHT22;39605;52.704;6.752;2022-07-10T03:56:55;11.90;99.90
53711;DHT22;39605;52.704;6.752;2022-07-10T03:59:40;11.90;99.90
53711;DHT22;39605;52.704;6.752;2022-07-10T04:02:06;12.00;99.90
53711;DHT22;39605;52.704;6.752;2022-07-10T04:04:31;12.00;99.90
53711;DHT22;39605;52.704;6.752;2022-07-10T04:06:57;12.10;99.90
53711;DHT22;39605;52.704;6.752;2022-07-10T04:09:23;12.10;99.90
53711;DHT22;39605;52.704;6.752;2022-07-10T04:11:49;12.30;99.90
53711;DHT22;39605;52.704;6.752;2022-07-10T04:14:14;12.40;99.90
53711;DHT22;39605;52.704;6.752;2022-07-10T04:16:40;12.40;99.90
53711;DHT22;39605;52.704;6.752;2022-07-10T04:19:06;12.30;99.90
53711;DHT22;39605;52.704;6.752;2022-07-10T04:21:31;12.40;99.90
53711;DHT22;39605;52.704;6.752;2022-07-10T04:23:58;12.60;99.90
53711;DHT22;39605;52.704;6.752;2022-07-10T04:26:23;12.60;99.90
53711;DHT22;39605;52.704;6.752;2022-07-10T04:28:49;12.60;99.90
53711;DHT22;39605;52.704;6.752;2022-07-10T04:31:15;12.60;99.90
53711;DHT22;39605;52.704;6.752;2022-07-10T04:33:40;12.60;99.90
53711;DHT22;39605;52.704;6.752;2022-07-10T04:36:06;12.70;99.90
53711;DHT22;39605;52.704;6.752;2022-07-10T04:38:32;12.70;99.90
53711;DHT22;39605;52.704;6.752;2022-07-10T04:40:58;12.70;99.90
53711;DHT22;39605;52.704;6.752;2022-07-10T04:43:24;12.70;99.90
53711;DHT22;39605;52.704;6.752;2022-07-10T04:45:50;12.80;99.90
53711;DHT22;39605;52.704;6.752;2022-07-10T04:48:16;12.80;99.90
53711;DHT22;39605;52.704;6.752;2022-07-10T04:50:42;12.90;99.90
53711;DHT22;39605;52.704;6.752;2022-07-10T04:53:07;12.80;99.90
53711;DHT22;39605;52.704;6.752;2022-07-10T04:55:33;12.90;99.90
53711;DHT22;39605;52.704;6.752;2022-07-10T04:57:59;13.00;99.90
53711;DHT22;39605;52.704;6.752;2022-07-10T05:00:25;12.90;99.90
53711;DHT22;39605;52.704;6.752;2022-07-10T05:02:51;13.00;99.90
53711;DHT22;39605;52.704;6.752;2022-07-10T05:05:16;13.00;99.90
53711;DHT22;39605;52.704;6.752;2022-07-10T05:07:42;13.10;99.90
53711;DHT22;39605;52.704;6.752;2022-07-10T05:10:08;13.10;99.90
53711;DHT22;39605;52.704;6.752;2022-07-10T05:12:34;13.10;99.90
53711;DHT22;39605;52.704;6.752;2022-07-10T05:15:00;13.10;99.90
53711;DHT22;39605;52.704;6.752;2022-07-10T05:17:26;13.20;99.90
53711;DHT22;39605;52.704;6.752;2022-07-10T05:19:57;13.20;99.90
53711;DHT22;39605;52.704;6.752;2022-07-10T05:22:23;13.30;99.90
53711;DHT22;39605;52.704;6.752;2022-07-10T05:24:49;13.30;99.90
53711;DHT22;39605;52.704;6.752;2022-07-10T05:27:15;13.40;99.90
53711;DHT22;39605;52.704;6.752;2022-07-10T05:29:44;13.50;99.90
53711;DHT22;39605;52.704;6.752;2022-07-10T05:32:10;13.50;99.90
53711;DHT22;39605;52.704;6.752;2022-07-10T05:34:35;13.60;99.90
53711;DHT22;39605;52.704;6.752;2022-07-10T05:37:05;13.70;99.90
53711;DHT22;39605;52.704;6.752;2022-07-10T05:39:30;13.80;99.90
53711;DHT22;39605;52.704;6.752;2022-07-10T05:41:56;13.90;99.90
53711;DHT22;39605;52.704;6.752;2022-07-10T05:44:23;14.00;99.90
53711;DHT22;39605;52.704;6.752;2022-07-10T05:46:49;14.00;99.90
53711;DHT22;39605;52.704;6.752;2022-07-10T05:49:14;14.10;99.90
53711;DHT22;39605;52.704;6.752;2022-07-10T05:51:40;14.20;99.90
53711;DHT22;39605;52.704;6.752;2022-07-10T05:54:05;14.20;99.90
53711;DHT22;39605;52.704;6.752;2022-07-10T05:56:31;14.20;99.90
53711;DHT22;39605;52.704;6.752;2022-07-10T05:58:57;14.20;99.90
53711;DHT22;39605;52.704;6.752;2022-07-10T06:01:23;14.30;99.90
53711;DHT22;39605;52.704;6.752;2022-07-10T06:03:49;14.30;99.90
53711;DHT22;39605;52.704;6.752;2022-07-10T06:06:15;14.40;99.90
53711;DHT22;39605;52.704;6.752;2022-07-10T06:08:41;14.50;99.90
53711;DHT22;39605;52.704;6.752;2022-07-10T06:11:07;14.50;99.90
53711;DHT22;39605;52.704;6.752;2022-07-10T06:13:33;14.60;99.90
53711;DHT22;39605;52.704;6.752;2022-07-10T06:15:58;14.60;99.90
53711;DHT22;39605;52.704;6.752;2022-07-10T06:18:24;14.70;99.90
53711;DHT22;39605;52.704;6.752;2022-07-10T06:20:50;14.70;99.90
53711;DHT22;39605;52.704;6.752;2022-07-10T06:23:15;14.70;99.90
53711;DHT22;39605;52.704;6.752;2022-07-10T06:25:41;14.70;99.90
53711;DHT22;39605;52.704;6.752;2022-07-10T06:28:07;14.70;99.90
53711;DHT22;39605;52.704;6.752;2022-07-10T06:30:32;14.80;99.90
53711;DHT22;39605;52.704;6.752;2022-07-10T06:32:58;14.80;99.90
53711;DHT22;39605;52.704;6.752;2022-07-10T06:35:23;14.80;99.90
53711;DHT22;39605;52.704;6.752;2022-07-10T06:37:49;14.80;99.90
53711;DHT22;39605;52.704;6.752;2022-07-10T06:40:15;14.90;99.90
53711;DHT22;39605;52.704;6.752;2022-07-10T06:42:41;14.90;99.90
53711;DHT22;39605;52.704;6.752;2022-07-10T06:45:07;14.90;99.90
53711;DHT22;39605;52.704;6.752;2022-07-10T06:47:33;14.90;99.90
53711;DHT22;39605;52.704;6.752;2022-07-10T06:50:17;15.00;99.90
53711;DHT22;39605;52.704;6.752;2022-07-10T06:52:43;15.00;99.90
53711;DHT22;39605;52.704;6.752;2022-07-10T06:55:09;15.00;99.90
53711;DHT22;39605;52.704;6.752;2022-07-10T06:57:35;15.10;99.90
53711;DHT22;39605;52.704;6.752;2022-07-10T07:00:01;15.10;99.90
53711;DHT22;39605;52.704;6.752;2022-07-10T07:02:27;15.10;99.90
53711;DHT22;39605;52.704;6.752;2022-07-10T07:04:53;15.20;99.90
53711;DHT22;39605;52.704;6.752;2022-07-10T07:07:18;15.20;99.90
53711;DHT22;39605;52.704;6.752;2022-07-10T07:09:44;15.30;99.90
53711;DHT22;39605;52.704;6.752;2022-07-10T07:12:10;15.40;99.90
53711;DHT22;39605;52.704;6.752;2022-07-10T07:14:36;15.50;99.90
53711;DHT22;39605;52.704;6.752;2022-07-10T07:17:03;15.50;99.90
53711;DHT22;39605;52.704;6.752;2022-07-10T07:19:32;15.60;99.90
53711;DHT22;39605;52.704;6.752;2022-07-10T07:22:21;15.60;99.90
53711;DHT22;39605;52.704;6.752;2022-07-10T07:25:06;15.70;99.90
53711;DHT22;39605;52.704;6.752;2022-07-10T07:27:33;15.80;99.90
53711;DHT22;39605;52.704;6.752;2022-07-10T07:30:09;15.80;99.90
53711;DHT22;39605;52.704;6.752;2022-07-10T07:32:37;15.90;99.90
53711;DHT22;39605;52.704;6.752;2022-07-10T07:35:03;15.90;99.90
53711;DHT22;39605;52.704;6.752;2022-07-10T07:37:36;16.00;99.90
53711;DHT22;39605;52.704;6.752;2022-07-10T07:40:03;16.10;99.90
53711;DHT22;39605;52.704;6.752;2022-07-10T07:42:29;16.20;99.90
53711;DHT22;39605;52.704;6.752;2022-07-10T07:44:55;16.20;99.90
53711;DHT22;39605;52.704;6.752;2022-07-10T07:47:21;16.20;99.90
53711;DHT22;39605;52.704;6.752;2022-07-10T07:49:46;16.30;99.90
53711;DHT22;39605;52.704;6.752;2022-07-10T07:52:12;16.40;99.90
53711;DHT22;39605;52.704;6.752;2022-07-10T07:54:40;16.50;99.90
53711;DHT22;39605;52.704;6.752;2022-07-10T07:57:06;16.60;99.90
53711;DHT22;39605;52.704;6.752;2022-07-10T07:59:32;16.60;99.90
53711;DHT22;39605;52.704;6.752;2022-07-10T08:01:57;16.70;99.90
53711;DHT22;39605;52.704;6.752;2022-07-10T08:04:23;16.60;99.90
53711;DHT22;39605;52.704;6.752;2022-07-10T08:06:49;16.60;99.90
53711;DHT22;39605;52.704;6.752;2022-07-10T08:09:18;16.60;99.90
53711;DHT22;39605;52.704;6.752;2022-07-10T08:11:44;16.60;99.90
53711;DHT22;39605;52.704;6.752;2022-07-10T08:14:10;16.50;99.90
53711;DHT22;39605;52.704;6.752;2022-07-10T08:16:35;16.60;99.90
53711;DHT22;39605;52.704;6.752;2022-07-10T08:19:01;16.60;99.90
53711;DHT22;39605;52.704;6.752;2022-07-10T08:21:26;16.60;99.90
53711;DHT22;39605;52.704;6.752;2022-07-10T08:23:52;16.60;99.90
53711;DHT22;39605;52.704;6.752;2022-07-10T08:26:19;16.70;99.90
53711;DHT22;39605;52.704;6.752;2022-07-10T08:28:45;16.70;99.90
53711;DHT22;39605;52.704;6.752;2022-07-10T08:31:10;16.70;99.90
53711;DHT22;39605;52.704;6.752;2022-07-10T08:33:36;16.60;99.90
53711;DHT22;39605;52.704;6.752;2022-07-10T08:36:02;16.60;99.90
53711;DHT22;39605;52.704;6.752;2022-07-10T08:38:29;16.70;99.90
53711;DHT22;39605;52.704;6.752;2022-07-10T08:40:56;16.60;99.90
53711;DHT22;39605;52.704;6.752;2022-07-10T08:43:24;16.50;99.90
53711;DHT22;39605;52.704;6.752;2022-07-10T08:45:51;16.50;99.90
53711;DHT22;39605;52.704;6.752;2022-07-10T08:48:22;16.50;99.90
53711;DHT22;39605;52.704;6.752;2022-07-10T08:50:52;16.50;99.90
53711;DHT22;39605;52.704;6.752;2022-07-10T08:53:28;16.60;99.90
53711;DHT22;39605;52.704;6.752;2022-07-10T08:55:55;16.50;99.90
53711;DHT22;39605;52.704;6.752;2022-07-10T08:58:22;16.60;99.90
53711;DHT22;39605;52.704;6.752;2022-07-10T09:00:48;16.70;99.90
53711;DHT22;39605;52.704;6.752;2022-07-10T09:03:14;16.70;99.90
53711;DHT22;39605;52.704;6.752;2022-07-10T09:05:40;16.80;99.90
53711;DHT22;39605;52.704;6.752;2022-07-10T09:08:22;16.70;99.90
53711;DHT22;39605;52.704;6.752;2022-07-10T09:10:48;16.70;99.90
53711;DHT22;39605;52.704;6.752;2022-07-10T09:13:16;16.60;99.90
53711;DHT22;39605;52.704;6.752;2022-07-10T09:15:48;16.70;99.90
53711;DHT22;39605;52.704;6.752;2022-07-10T09:18:18;16.70;99.90
53711;DHT22;39605;52.704;6.752;2022-07-10T09:20:45;16.90;99.90
53711;DHT22;39605;52.704;6.752;2022-07-10T09:23:16;16.90;99.90
53711;DHT22;39605;52.704;6.752;2022-07-10T09:25:43;17.00;99.90
53711;DHT22;39605;52.704;6.752;2022-07-10T09:28:09;17.00;99.90
53711;DHT22;39605;52.704;6.752;2022-07-10T09:30:37;16.90;99.90
53711;DHT22;39605;52.704;6.752;2022-07-10T09:33:23;16.80;99.90
53711;DHT22;39605;52.704;6.752;2022-07-10T09:41:22;16.80;99.90
53711;DHT22;39605;52.704;6.752;2022-07-10T09:43:50;16.90;99.90
53711;DHT22;39605;52.704;6.752;2022-07-10T09:46:16;17.00;99.90
53711;DHT22;39605;52.704;6.752;2022-07-10T09:48:42;17.20;99.90
53711;DHT22;39605;52.704;6.752;2022-07-10T09:51:10;17.30;99.90
53711;DHT22;39605;52.704;6.752;2022-07-10T09:53:40;17.30;99.90
53711;DHT22;39605;52.704;6.752;2022-07-10T09:56:08;17.30;99.90
53711;DHT22;39605;52.704;6.752;2022-07-10T09:58:34;17.30;99.90
53711;DHT22;39605;52.704;6.752;2022-07-10T10:01:07;17.30;99.90
53711;DHT22;39605;52.704;6.752;2022-07-10T10:03:35;17.20;99.90
53711;DHT22;39605;52.704;6.752;2022-07-10T10:06:14;17.20;99.90
53711;DHT22;39605;52.704;6.752;2022-07-10T10:11:57;17.20;99.90
53711;DHT22;39605;52.704;6.752;2022-07-10T10:14:25;17.20;99.90
53711;DHT22;39605;52.704;6.752;2022-07-10T10:16:55;17.20;99.90
53711;DHT22;39605;52.704;6.752;2022-07-10T10:19:23;17.20;99.90
53711;DHT22;39605;52.704;6.752;2022-07-10T10:22:08;17.10;99.90
53711;DHT22;39605;52.704;6.752;2022-07-10T10:24:34;17.10;99.90
53711;DHT22;39605;52.704;6.752;2022-07-10T10:27:00;17.00;99.90
53711;DHT22;39605;52.704;6.752;2022-07-10T10:29:27;17.00;99.90
53711;DHT22;39605;52.704;6.752;2022-07-10T10:31:53;17.10;99.90
53711;DHT22;39605;52.704;6.752;2022-07-10T10:34:46;17.10;99.90
53711;DHT22;39605;52.704;6.752;2022-07-10T10:37:34;17.10;99.90
53711;DHT22;39605;52.704;6.752;2022-07-10T10:40:04;17.10;99.90
53711;DHT22;39605;52.704;6.752;2022-07-10T10:42:42;17.10;99.90
53711;DHT22;39605;52.704;6.752;2022-07-10T10:45:31;17.00;99.90
53711;DHT22;39605;52.704;6.752;2022-07-10T10:50:42;16.80;99.90
53711;DHT22;39605;52.704;6.752;2022-07-10T10:55:57;16.60;99.90
53711;DHT22;39605;52.704;6.752;2022-07-10T10:58:38;16.70;99.90
53711;DHT22;39605;52.704;6.752;2022-07-10T11:06:59;17.10;99.90
53711;DHT22;39605;52.704;6.752;2022-07-10T11:09:31;17.10;99.90
53711;DHT22;39605;52.704;6.752;2022-07-10T11:12:04;17.00;99.90
53711;DHT22;39605;52.704;6.752;2022-07-10T11:14:32;16.90;99.90
53711;DHT22;39605;52.704;6.752;2022-07-10T11:16:59;16.90;99.90
53711;DHT22;39605;52.704;6.752;2022-07-10T11:19:29;16.80;99.90
53711;DHT22;39605;52.704;6.752;2022-07-10T11:28:04;17.10;99.90
53711;DHT22;39605;52.704;6.752;2022-07-10T11:30:53;17.30;99.90
53711;DHT22;39605;52.704;6.752;2022-07-10T11:33:19;17.60;99.90
53711;DHT22;39605;52.704;6.752;2022-07-10T11:35:47;17.90;99.90
53711;DHT22;39605;52.704;6.752;2022-07-10T11:38:22;18.10;99.90
53711;DHT22;39605;52.704;6.752;2022-07-10T11:40:48;18.30;99.90
53711;DHT22;39605;52.704;6.752;2022-07-10T11:43:13;18.40;99.90
53711;DHT22;39605;52.704;6.752;2022-07-10T11:45:43;18.50;99.90
53711;DHT22;39605;52.704;6.752;2022-07-10T11:48:21;18.60;99.90
53711;DHT22;39605;52.704;6.752;2022-07-10T11:50:49;18.60;99.90
53711;DHT22;39605;52.704;6.752;2022-07-10T11:53:25;18.60;99.90
53711;DHT22;39605;52.704;6.752;2022-07-10T11:55:51;18.50;99.90
53711;DHT22;39605;52.704;6.752;2022-07-10T11:58:19;18.30;99.90
53711;DHT22;39605;52.704;6.752;2022-07-10T12:01:02;18.00;99.90
53711;DHT22;39605;52.704;6.752;2022-07-10T12:03:31;17.90;99.90
53711;DHT22;39605;52.704;6.752;2022-07-10T12:06:04;17.70;99.90
53711;DHT22;39605;52.704;6.752;2022-07-10T12:08:45;17.70;99.90
53711;DHT22;39605;52.704;6.752;2022-07-10T12:11:16;17.80;99.90
53711;DHT22;39605;52.704;6.752;2022-07-10T12:13:44;18.00;99.90
53711;DHT22;39605;52.704;6.752;2022-07-10T12:16:10;18.20;99.90
53711;DHT22;39605;52.704;6.752;2022-07-10T12:18:37;18.30;99.90
53711;DHT22;39605;52.704;6.752;2022-07-10T12:21:03;18.20;99.90
53711;DHT22;39605;52.704;6.752;2022-07-10T12:23:29;18.10;99.90
53711;DHT22;39605;52.704;6.752;2022-07-10T12:25:56;18.00;99.90
53711;DHT22;39605;52.704;6.752;2022-07-10T12:28:22;17.80;99.90
53711;DHT22;39605;52.704;6.752;2022-07-10T12:30:49;17.60;99.90
53711;DHT22;39605;52.704;6.752;2022-07-10T12:33:15;17.50;99.90
53711;DHT22;39605;52.704;6.752;2022-07-10T12:35:54;17.50;99.90
53711;DHT22;39605;52.704;6.752;2022-07-10T12:38:24;17.60;99.90
53711;DHT22;39605;52.704;6.752;2022-07-10T12:40:58;17.80;99.90
53711;DHT22;39605;52.704;6.752;2022-07-10T12:43:31;18.10;99.90
53711;DHT22;39605;52.704;6.752;2022-07-10T12:46:16;18.20;99.90
53711;DHT22;39605;52.704;6.752;2022-07-10T12:51:27;18.00;99.90
53711;DHT22;39605;52.704;6.752;2022-07-10T12:53:54;17.90;99.90
53711;DHT22;39605;52.704;6.752;2022-07-10T12:56:34;17.70;99.90
53711;DHT22;39605;52.704;6.752;2022-07-10T12:59:02;17.70;99.90
53711;DHT22;39605;52.704;6.752;2022-07-10T13:01:38;17.70;99.90
53711;DHT22;39605;52.704;6.752;2022-07-10T13:04:04;17.70;99.90
53711;DHT22;39605;52.704;6.752;2022-07-10T13:06:31;17.80;99.90
53711;DHT22;39605;52.704;6.752;2022-07-10T13:08:58;17.80;99.90
53711;DHT22;39605;52.704;6.752;2022-07-10T13:11:24;17.90;99.90
53711;DHT22;39605;52.704;6.752;2022-07-10T13:13:50;17.90;99.90
53711;DHT22;39605;52.704;6.752;2022-07-10T13:16:15;17.90;99.90
53711;DHT22;39605;52.704;6.752;2022-07-10T13:18:44;18.00;99.90
53711;DHT22;39605;52.704;6.752;2022-07-10T13:21:11;18.10;99.90
53711;DHT22;39605;52.704;6.752;2022-07-10T13:23:37;18.10;99.90
53711;DHT22;39605;52.704;6.752;2022-07-10T13:26:08;18.10;99.90
53711;DHT22;39605;52.704;6.752;2022-07-10T13:28:34;18.10;99.90
53711;DHT22;39605;52.704;6.752;2022-07-10T13:31:00;18.20;99.90
53711;DHT22;39605;52.704;6.752;2022-07-10T13:33:25;18.10;99.90
53711;DHT22;39605;52.704;6.752;2022-07-10T13:35:52;18.10;99.90
53711;DHT22;39605;52.704;6.752;2022-07-10T13:38:18;18.10;99.90
53711;DHT22;39605;52.704;6.752;2022-07-10T13:40:45;18.00;99.90
53711;DHT22;39605;52.704;6.752;2022-07-10T13:43:12;18.00;99.90
53711;DHT22;39605;52.704;6.752;2022-07-10T13:45:38;18.10;99.90
53711;DHT22;39605;52.704;6.752;2022-07-10T13:48:14;18.10;99.90
53711;DHT22;39605;52.704;6.752;2022-07-10T13:50:41;18.30;99.90
53711;DHT22;39605;52.704;6.752;2022-07-10T13:53:07;18.40;99.90
53711;DHT22;39605;52.704;6.752;2022-07-10T13:55:34;18.50;99.90
53711;DHT22;39605;52.704;6.752;2022-07-10T13:57:59;18.60;99.90
53711;DHT22;39605;52.704;6.752;2022-07-10T14:00:25;18.60;99.90
53711;DHT22;39605;52.704;6.752;2022-07-10T14:02:51;18.60;99.90
53711;DHT22;39605;52.704;6.752;2022-07-10T14:05:16;18.50;99.90
53711;DHT22;39605;52.704;6.752;2022-07-10T14:07:42;18.40;99.90
53711;DHT22;39605;52.704;6.752;2022-07-10T14:10:08;18.30;99.90
53711;DHT22;39605;52.704;6.752;2022-07-10T14:12:34;18.20;99.90
53711;DHT22;39605;52.704;6.752;2022-07-10T14:15:00;18.10;99.90
53711;DHT22;39605;52.704;6.752;2022-07-10T14:17:26;18.10;99.90
53711;DHT22;39605;52.704;6.752;2022-07-10T14:19:53;18.10;99.90
53711;DHT22;39605;52.704;6.752;2022-07-10T14:22:19;18.20;99.90
53711;DHT22;39605;52.704;6.752;2022-07-10T14:24:44;18.10;99.90
53711;DHT22;39605;52.704;6.752;2022-07-10T14:27:10;18.10;99.90
53711;DHT22;39605;52.704;6.752;2022-07-10T14:29:36;18.10;99.90
53711;DHT22;39605;52.704;6.752;2022-07-10T14:32:02;18.10;99.90
53711;DHT22;39605;52.704;6.752;2022-07-10T14:34:28;18.10;99.90
53711;DHT22;39605;52.704;6.752;2022-07-10T14:36:55;18.10;99.90
53711;DHT22;39605;52.704;6.752;2022-07-10T14:39:20;18.10;99.90
53711;DHT22;39605;52.704;6.752;2022-07-10T14:41:46;18.20;99.90
53711;DHT22;39605;52.704;6.752;2022-07-10T14:44:12;18.20;99.90
53711;DHT22;39605;52.704;6.752;2022-07-10T14:46:37;18.20;99.90
53711;DHT22;39605;52.704;6.752;2022-07-10T14:49:04;18.30;99.90
53711;DHT22;39605;52.704;6.752;2022-07-10T14:51:29;18.30;99.90
53711;DHT22;39605;52.704;6.752;2022-07-10T14:53:55;18.20;99.90
53711;DHT22;39605;52.704;6.752;2022-07-10T14:56:22;18.20;99.90
53711;DHT22;39605;52.704;6.752;2022-07-10T14:58:48;18.10;99.90
53711;DHT22;39605;52.704;6.752;2022-07-10T15:01:14;18.20;99.90
53711;DHT22;39605;52.704;6.752;2022-07-10T15:03:43;18.20;99.90
53711;DHT22;39605;52.704;6.752;2022-07-10T15:06:09;18.20;99.90
53711;DHT22;39605;52.704;6.752;2022-07-10T15:08:35;18.20;99.90
53711;DHT22;39605;52.704;6.752;2022-07-10T15:11:01;18.20;99.90
53711;DHT22;39605;52.704;6.752;2022-07-10T15:13:27;18.20;99.90
53711;DHT22;39605;52.704;6.752;2022-07-10T15:15:53;18.10;99.90
53711;DHT22;39605;52.704;6.752;2022-07-10T15:18:20;18.10;99.90
53711;DHT22;39605;52.704;6.752;2022-07-10T15:20:46;18.10;99.90
53711;DHT22;39605;52.704;6.752;2022-07-10T15:23:12;18.10;99.90
53711;DHT22;39605;52.704;6.752;2022-07-10T15:25:42;18.20;99.90
53711;DHT22;39605;52.704;6.752;2022-07-10T15:28:08;18.10;99.90
53711;DHT22;39605;52.704;6.752;2022-07-10T15:30:35;18.20;99.90
53711;DHT22;39605;52.704;6.752;2022-07-10T15:33:02;18.20;99.90
53711;DHT22;39605;52.704;6.752;2022-07-10T15:35:28;18.30;99.90
53711;DHT22;39605;52.704;6.752;2022-07-10T15:37:54;18.30;99.90
53711;DHT22;39605;52.704;6.752;2022-07-10T15:40:20;18.40;99.90
53711;DHT22;39605;52.704;6.752;2022-07-10T15:42:45;18.40;99.90
53711;DHT22;39605;52.704;6.752;2022-07-10T15:45:11;18.40;99.90
53711;DHT22;39605;52.704;6.752;2022-07-10T15:47:37;18.40;99.90
53711;DHT22;39605;52.704;6.752;2022-07-10T15:50:04;18.40;99.90
53711;DHT22;39605;52.704;6.752;2022-07-10T15:52:29;18.30;99.90
53711;DHT22;39605;52.704;6.752;2022-07-10T15:54:55;18.30;99.90
53711;DHT22;39605;52.704;6.752;2022-07-10T15:57:21;18.30;99.90
53711;DHT22;39605;52.704;6.752;2022-07-10T15:59:47;18.30;99.90